Terminal Aerodrome Forecast
Issued by NWS

Home | Current Version | Previous Version | Text Only | Print | Product List | Glossary On
Versions: 1 2 3 4 5 6 7 8 9 10 11 12 13
497
FTUS43 KSGF 201835 AAA
TAFBBG
TAF AMD
KBBG 201835Z 2019/2118 19012G18KT P6SM BKN250
     FM210500 18013G19KT P6SM SCT007 OVC015 WS020/21040KT
     FM211500 19015G24KT P6SM OVC007=

USA.gov is the U.S. government's official web portal to all federal, state and local government web resources and services.